sensor_id;sensor_type;location;lat;lon;timestamp;pressure;altitude;pressure_sealevel;temperature;humidity
29371;BME280;16357;52.188;7.838;2023-02-14T00:00:46;102824.56;;;5.54;63.38
29371;BME280;16357;52.188;7.838;2023-02-14T00:03:12;102822.69;;;5.56;64.00
29371;BME280;16357;52.188;7.838;2023-02-14T00:05:40;102830.59;;;5.58;64.09
29371;BME280;16357;52.188;7.838;2023-02-14T00:08:06;102826.16;;;5.58;63.99
29371;BME280;16357;52.188;7.838;2023-02-14T00:10:32;102828.66;;;5.61;63.96
29371;BME280;16357;52.188;7.838;2023-02-14T00:12:59;102822.38;;;5.62;64.20
29371;BME280;16357;52.188;7.838;2023-02-14T00:15:25;102822.34;;;5.64;64.40
29371;BME280;16357;52.188;7.838;2023-02-14T00:17:54;102826.66;;;5.66;64.48
29371;BME280;16357;52.188;7.838;2023-02-14T00:20:22;102825.69;;;5.67;64.62
29371;BME280;16357;52.188;7.838;2023-02-14T00:22:49;102815.84;;;5.69;64.26
29371;BME280;16357;52.188;7.838;2023-02-14T00:25:15;102820.31;;;5.69;64.00
29371;BME280;16357;52.188;7.838;2023-02-14T00:27:42;102815.84;;;5.69;64.06
29371;BME280;16357;52.188;7.838;2023-02-14T00:30:10;102820.31;;;5.69;63.44
29371;BME280;16357;52.188;7.838;2023-02-14T00:32:38;102817.72;;;5.67;63.45
29371;BME280;16357;52.188;7.838;2023-02-14T00:35:05;102822.25;;;5.65;63.59
29371;BME280;16357;52.188;7.838;2023-02-14T00:37:32;102820.59;;;5.63;63.86
29371;BME280;16357;52.188;7.838;2023-02-14T00:39:59;102816.25;;;5.60;63.74
29371;BME280;16357;52.188;7.838;2023-02-14T00:42:25;102819.94;;;5.58;63.92
29371;BME280;16357;52.188;7.838;2023-02-14T00:44:52;102814.72;;;5.56;63.72
29371;BME280;16357;52.188;7.838;2023-02-14T00:47:18;102815.72;;;5.54;63.75
29371;BME280;16357;52.188;7.838;2023-02-14T00:49:44;102817.53;;;5.53;63.86
29371;BME280;16357;52.188;7.838;2023-02-14T00:52:11;102818.44;;;5.52;64.15
29371;BME280;16357;52.188;7.838;2023-02-14T00:54:37;102823.75;;;5.52;64.38
29371;BME280;16357;52.188;7.838;2023-02-14T00:57:03;102822.91;;;5.52;64.77
29371;BME280;16357;52.188;7.838;2023-02-14T01:02:57;102829.94;;;5.53;64.49
29371;BME280;16357;52.188;7.838;2023-02-14T01:05:23;102834.41;;;5.52;64.38
29371;BME280;16357;52.188;7.838;2023-02-14T01:07:49;102834.50;;;5.50;63.87
29371;BME280;16357;52.188;7.838;2023-02-14T01:10:16;102845.19;;;5.49;63.88
29371;BME280;16357;52.188;7.838;2023-02-14T01:12:42;102856.00;;;5.46;63.53
29371;BME280;16357;52.188;7.838;2023-02-14T01:15:08;102840.19;;;5.43;63.77
29371;BME280;16357;52.188;7.838;2023-02-14T01:17:35;102850.06;;;5.39;63.99
29371;BME280;16357;52.188;7.838;2023-02-14T01:20:01;102840.44;;;5.37;63.91
29371;BME280;16357;52.188;7.838;2023-02-14T01:22:28;102842.34;;;5.35;64.52
29371;BME280;16357;52.188;7.838;2023-02-14T01:24:54;102839.72;;;5.33;64.10
29371;BME280;16357;52.188;7.838;2023-02-14T01:27:20;102842.44;;;5.32;64.56
29371;BME280;16357;52.188;7.838;2023-02-14T01:29:47;102840.72;;;5.31;64.64
29371;BME280;16357;52.188;7.838;2023-02-14T01:32:13;102850.44;;;5.32;64.95
29371;BME280;16357;52.188;7.838;2023-02-14T01:34:40;102835.41;;;5.31;65.53
29371;BME280;16357;52.188;7.838;2023-02-14T01:37:06;102846.00;;;5.32;65.67
29371;BME280;16357;52.188;7.838;2023-02-14T01:39:32;102847.66;;;5.35;66.19
29371;BME280;16357;52.188;7.838;2023-02-14T01:41:59;102844.03;;;5.36;65.72
29371;BME280;16357;52.188;7.838;2023-02-14T01:47:01;102853.63;;;5.40;65.07
29371;BME280;16357;52.188;7.838;2023-02-14T01:49:36;102843.03;;;5.38;65.09
29371;BME280;16357;52.188;7.838;2023-02-14T01:52:23;102849.22;;;5.39;65.29
29371;BME280;16357;52.188;7.838;2023-02-14T01:54:55;102834.25;;;5.36;65.01
29371;BME280;16357;52.188;7.838;2023-02-14T01:57:27;102820.16;;;5.34;65.24
29371;BME280;16357;52.188;7.838;2023-02-14T01:59:57;102827.28;;;5.34;64.80
29371;BME280;16357;52.188;7.838;2023-02-14T02:02:44;102838.00;;;5.32;65.32
29371;BME280;16357;52.188;7.838;2023-02-14T02:05:12;102829.13;;;5.32;65.94
29371;BME280;16357;52.188;7.838;2023-02-14T02:07:39;102833.53;;;5.33;65.60
29371;BME280;16357;52.188;7.838;2023-02-14T02:10:06;102829.09;;;5.33;65.93
29371;BME280;16357;52.188;7.838;2023-02-14T02:12:34;102829.94;;;5.34;66.01
29371;BME280;16357;52.188;7.838;2023-02-14T02:15:04;102826.28;;;5.36;66.50
29371;BME280;16357;52.188;7.838;2023-02-14T02:23:27;102818.00;;;5.42;67.09
29371;BME280;16357;52.188;7.838;2023-02-14T02:44:16;102797.28;;;5.49;66.37
29371;BME280;16357;52.188;7.838;2023-02-14T02:49:32;102800.75;;;5.51;65.98
29371;BME280;16357;52.188;7.838;2023-02-14T02:52:27;102788.34;;;5.50;66.41
29371;BME280;16357;52.188;7.838;2023-02-14T02:55:21;102791.81;;;5.52;66.63
29371;BME280;16357;52.188;7.838;2023-02-14T02:57:50;102791.91;;;5.50;66.16
29371;BME280;16357;52.188;7.838;2023-02-14T03:00:21;102788.34;;;5.50;66.25
29371;BME280;16357;52.188;7.838;2023-02-14T03:02:51;102786.50;;;5.52;66.85
29371;BME280;16357;52.188;7.838;2023-02-14T03:05:39;102783.81;;;5.52;66.76
29371;BME280;16357;52.188;7.838;2023-02-14T03:08:06;102775.84;;;5.52;66.58
29371;BME280;16357;52.188;7.838;2023-02-14T03:10:36;102780.16;;;5.55;66.65
29371;BME280;16357;52.188;7.838;2023-02-14T03:15:56;102775.78;;;5.54;66.82
29371;BME280;16357;52.188;7.838;2023-02-14T03:21:36;102774.78;;;5.56;66.65
29371;BME280;16357;52.188;7.838;2023-02-14T03:24:34;102769.44;;;5.56;66.54
29371;BME280;16357;52.188;7.838;2023-02-14T03:30:02;102767.78;;;5.54;66.99
29371;BME280;16357;52.188;7.838;2023-02-14T03:32:50;102765.19;;;5.52;66.63
29371;BME280;16357;52.188;7.838;2023-02-14T03:35:29;102759.88;;;5.52;66.64
29371;BME280;16357;52.188;7.838;2023-02-14T03:38:10;102753.69;;;5.52;66.52
29371;BME280;16357;52.188;7.838;2023-02-14T03:40:48;102759.00;;;5.52;66.94
29371;BME280;16357;52.188;7.838;2023-02-14T03:43:28;102753.69;;;5.52;67.06
29371;BME280;16357;52.188;7.838;2023-02-14T03:48:43;102750.06;;;5.53;67.02
29371;BME280;16357;52.188;7.838;2023-02-14T03:51:12;102750.06;;;5.53;66.46
29371;BME280;16357;52.188;7.838;2023-02-14T03:53:43;102751.03;;;5.52;66.83
29371;BME280;16357;52.188;7.838;2023-02-14T03:56:20;102744.00;;;5.50;66.70
29371;BME280;16357;52.188;7.838;2023-02-14T03:58:50;102747.50;;;5.51;67.18
29371;BME280;16357;52.188;7.838;2023-02-14T04:01:26;102750.16;;;5.51;67.24
29371;BME280;16357;52.188;7.838;2023-02-14T04:03:54;102749.22;;;5.52;67.17
29371;BME280;16357;52.188;7.838;2023-02-14T04:06:22;102743.91;;;5.52;67.09
29371;BME280;16357;52.188;7.838;2023-02-14T04:08:49;102743.03;;;5.52;67.35
29371;BME280;16357;52.188;7.838;2023-02-14T04:11:15;102752.84;;;5.51;67.13
29371;BME280;16357;52.188;7.838;2023-02-14T04:13:42;102747.56;;;5.49;67.42
29371;BME280;16357;52.188;7.838;2023-02-14T04:16:08;102746.72;;;5.49;67.00
29371;BME280;16357;52.188;7.838;2023-02-14T04:18:35;102741.44;;;5.47;67.30
29371;BME280;16357;52.188;7.838;2023-02-14T04:21:20;102745.91;;;5.47;67.17
29371;BME280;16357;52.188;7.838;2023-02-14T04:23:46;102744.19;;;5.46;67.33
29371;BME280;16357;52.188;7.838;2023-02-14T04:26:12;102747.78;;;5.45;67.47
29371;BME280;16357;52.188;7.838;2023-02-14T04:28:39;102750.44;;;5.45;67.15
29371;BME280;16357;52.188;7.838;2023-02-14T04:31:05;102751.38;;;5.44;67.41
29371;BME280;16357;52.188;7.838;2023-02-14T04:33:32;102746.06;;;5.44;67.66
29371;BME280;16357;52.188;7.838;2023-02-14T04:35:59;102739.94;;;5.42;67.30
29371;BME280;16357;52.188;7.838;2023-02-14T04:38:26;102741.75;;;5.41;67.59
29371;BME280;16357;52.188;7.838;2023-02-14T04:40:52;102741.75;;;5.41;67.29
29371;BME280;16357;52.188;7.838;2023-02-14T04:43:19;102751.59;;;5.39;67.18
29371;BME280;16357;52.188;7.838;2023-02-14T04:45:46;102747.22;;;5.38;67.43
29371;BME280;16357;52.188;7.838;2023-02-14T04:48:13;102741.09;;;5.36;66.98
29371;BME280;16357;52.188;7.838;2023-02-14T04:50:39;102737.66;;;5.34;66.82
29371;BME280;16357;52.188;7.838;2023-02-14T04:53:05;102736.94;;;5.31;66.56
29371;BME280;16357;52.188;7.838;2023-02-14T04:55:32;102728.25;;;5.27;66.64
29371;BME280;16357;52.188;7.838;2023-02-14T04:57:58;102720.47;;;5.22;66.68
29371;BME280;16357;52.188;7.838;2023-02-14T05:00:25;102724.22;;;5.18;66.29
29371;BME280;16357;52.188;7.838;2023-02-14T05:02:51;102727.97;;;5.14;66.25
29371;BME280;16357;52.188;7.838;2023-02-14T05:05:17;102721.16;;;5.09;66.32
29371;BME280;16357;52.188;7.838;2023-02-14T05:07:44;102716.03;;;5.04;66.72
29371;BME280;16357;52.188;7.838;2023-02-14T05:10:13;102720.66;;;5.00;66.69
29371;BME280;16357;52.188;7.838;2023-02-14T05:12:40;102721.69;;;4.96;66.40
29371;BME280;16357;52.188;7.838;2023-02-14T05:15:07;102719.25;;;4.92;66.55
29371;BME280;16357;52.188;7.838;2023-02-14T05:17:33;102715.09;;;4.86;66.61
29371;BME280;16357;52.188;7.838;2023-02-14T05:20:02;102719.69;;;4.82;66.75
29371;BME280;16357;52.188;7.838;2023-02-14T05:22:29;102717.09;;;4.81;66.74
29371;BME280;16357;52.188;7.838;2023-02-14T05:24:55;102715.53;;;4.77;66.63
29371;BME280;16357;52.188;7.838;2023-02-14T05:27:22;102716.53;;;4.74;66.35
29371;BME280;16357;52.188;7.838;2023-02-14T05:29:48;102717.56;;;4.70;66.42
29371;BME280;16357;52.188;7.838;2023-02-14T05:32:15;102723.03;;;4.67;65.85
29371;BME280;16357;52.188;7.838;2023-02-14T05:34:41;102730.34;;;4.62;65.74
29371;BME280;16357;52.188;7.838;2023-02-14T05:37:08;102719.06;;;4.57;65.70
29371;BME280;16357;52.188;7.838;2023-02-14T05:39:34;102717.53;;;4.51;65.50
29371;BME280;16357;52.188;7.838;2023-02-14T05:42:00;102724.84;;;4.46;65.55
29371;BME280;16357;52.188;7.838;2023-02-14T05:44:27;102728.66;;;4.40;66.02
29371;BME280;16357;52.188;7.838;2023-02-14T05:46:53;102732.38;;;4.36;66.15
29371;BME280;16357;52.188;7.838;2023-02-14T05:49:20;102729.03;;;4.31;66.04
29371;BME280;16357;52.188;7.838;2023-02-14T05:51:46;102739.81;;;4.28;66.23
29371;BME280;16357;52.188;7.838;2023-02-14T05:54:13;102739.94;;;4.25;66.75
29371;BME280;16357;52.188;7.838;2023-02-14T05:56:39;102734.78;;;4.22;66.40
29371;BME280;16357;52.188;7.838;2023-02-14T05:59:06;102741.00;;;4.21;66.58
29371;BME280;16357;52.188;7.838;2023-02-14T06:01:32;102740.13;;;4.21;66.53
29371;BME280;16357;52.188;7.838;2023-02-14T06:03:59;102738.47;;;4.18;66.58
29371;BME280;16357;52.188;7.838;2023-02-14T06:06:25;102746.53;;;4.16;66.33
29371;BME280;16357;52.188;7.838;2023-02-14T06:08:52;102742.13;;;4.15;66.49
29371;BME280;16357;52.188;7.838;2023-02-14T06:11:18;102743.13;;;4.13;66.55
29371;BME280;16357;52.188;7.838;2023-02-14T06:13:45;102745.84;;;4.11;66.66
29371;BME280;16357;52.188;7.838;2023-02-14T06:16:11;102745.00;;;4.11;66.69
29371;BME280;16357;52.188;7.838;2023-02-14T06:18:37;102746.84;;;4.09;66.83
29371;BME280;16357;52.188;7.838;2023-02-14T06:21:04;102753.06;;;4.08;66.42
29371;BME280;16357;52.188;7.838;2023-02-14T06:23:30;102754.06;;;4.05;66.38
29371;BME280;16357;52.188;7.838;2023-02-14T06:25:57;102749.75;;;4.03;66.63
29371;BME280;16357;52.188;7.838;2023-02-14T06:28:23;102750.69;;;4.02;66.82
29371;BME280;16357;52.188;7.838;2023-02-14T06:30:50;102753.38;;;4.00;66.67
29371;BME280;16357;52.188;7.838;2023-02-14T06:33:16;102749.97;;;3.98;66.50
29371;BME280;16357;52.188;7.838;2023-02-14T06:35:43;102757.91;;;3.98;66.52
29371;BME280;16357;52.188;7.838;2023-02-14T06:38:09;102756.25;;;3.95;66.51
29371;BME280;16357;52.188;7.838;2023-02-14T06:40:36;102751.09;;;3.92;66.57
29371;BME280;16357;52.188;7.838;2023-02-14T06:43:02;102754.66;;;3.91;66.41
29371;BME280;16357;52.188;7.838;2023-02-14T06:45:29;102751.19;;;3.89;66.50
29371;BME280;16357;52.188;7.838;2023-02-14T06:47:56;102753.06;;;3.87;66.31
29371;BME280;16357;52.188;7.838;2023-02-14T06:50:22;102748.66;;;3.86;66.28
29371;BME280;16357;52.188;7.838;2023-02-14T06:52:49;102748.75;;;3.85;66.09
29371;BME280;16357;52.188;7.838;2023-02-14T06:55:16;102754.16;;;3.82;66.30
29371;BME280;16357;52.188;7.838;2023-02-14T06:57:43;102746.28;;;3.80;66.35
29371;BME280;16357;52.188;7.838;2023-02-14T07:00:11;102752.50;;;3.79;66.38
29371;BME280;16357;52.188;7.838;2023-02-14T07:02:40;102754.38;;;3.77;66.41
29371;BME280;16357;52.188;7.838;2023-02-14T07:05:07;102754.38;;;3.77;66.54
29371;BME280;16357;52.188;7.838;2023-02-14T07:07:33;102758.81;;;3.77;66.90
29371;BME280;16357;52.188;7.838;2023-02-14T07:09:59;102758.72;;;3.78;67.21
29371;BME280;16357;52.188;7.838;2023-02-14T07:12:26;102769.22;;;3.81;67.52
29371;BME280;16357;52.188;7.838;2023-02-14T07:14:53;102768.22;;;3.84;67.76
29371;BME280;16357;52.188;7.838;2023-02-14T07:17:19;102769.00;;;3.87;67.58
29371;BME280;16357;52.188;7.838;2023-02-14T07:19:45;102772.38;;;3.91;67.58
29371;BME280;16357;52.188;7.838;2023-02-14T07:22:12;102777.56;;;3.94;67.82
29371;BME280;16357;52.188;7.838;2023-02-14T07:24:38;102771.19;;;3.98;67.49
29371;BME280;16357;52.188;7.838;2023-02-14T07:27:05;102765.75;;;4.01;67.84
29371;BME280;16357;52.188;7.838;2023-02-14T07:29:31;102771.78;;;4.05;67.52
29371;BME280;16357;52.188;7.838;2023-02-14T07:31:58;102761.03;;;4.08;67.26
29371;BME280;16357;52.188;7.838;2023-02-14T07:34:24;102764.44;;;4.11;67.31
29371;BME280;16357;52.188;7.838;2023-02-14T07:36:52;102765.16;;;4.15;67.51
29371;BME280;16357;52.188;7.838;2023-02-14T07:39:18;102758.81;;;4.19;67.63
29371;BME280;16357;52.188;7.838;2023-02-14T07:41:45;102760.41;;;4.23;67.94
29371;BME280;16357;52.188;7.838;2023-02-14T07:44:11;102753.94;;;4.29;68.00
29371;BME280;16357;52.188;7.838;2023-02-14T07:46:38;102764.25;;;4.36;68.38
29371;BME280;16357;52.188;7.838;2023-02-14T07:49:04;102755.13;;;4.42;68.28
29371;BME280;16357;52.188;7.838;2023-02-14T07:51:31;102769.91;;;4.49;68.62
29371;BME280;16357;52.188;7.838;2023-02-14T07:53:57;102757.22;;;4.56;68.46
29371;BME280;16357;52.188;7.838;2023-02-14T07:56:24;102763.06;;;4.64;68.58
29371;BME280;16357;52.188;7.838;2023-02-14T07:58:50;102761.81;;;4.71;68.41
29371;BME280;16357;52.188;7.838;2023-02-14T08:01:17;102762.38;;;4.79;68.12
29371;BME280;16357;52.188;7.838;2023-02-14T08:03:43;102756.72;;;4.87;68.16
29371;BME280;16357;52.188;7.838;2023-02-14T08:06:15;102756.34;;;4.95;68.20
29371;BME280;16357;52.188;7.838;2023-02-14T08:08:43;102752.47;;;5.02;68.43
29371;BME280;16357;52.188;7.838;2023-02-14T08:11:10;102748.59;;;5.09;68.48
29371;BME280;16357;52.188;7.838;2023-02-14T08:13:37;102758.03;;;5.16;68.52
29371;BME280;16357;52.188;7.838;2023-02-14T08:16:03;102754.91;;;5.25;68.82
29371;BME280;16357;52.188;7.838;2023-02-14T08:18:35;102757.16;;;5.35;68.71
29371;BME280;16357;52.188;7.838;2023-02-14T08:21:04;102749.69;;;5.43;69.13
29371;BME280;16357;52.188;7.838;2023-02-14T08:23:31;102754.53;;;5.52;68.85
29371;BME280;16357;52.188;7.838;2023-02-14T08:25:57;102750.50;;;5.62;68.79
29371;BME280;16357;52.188;7.838;2023-02-14T08:28:24;102763.38;;;5.71;69.32
29371;BME280;16357;52.188;7.838;2023-02-14T08:30:52;102757.53;;;5.82;69.26
29371;BME280;16357;52.188;7.838;2023-02-14T08:33:19;102760.56;;;5.92;69.15
29371;BME280;16357;52.188;7.838;2023-02-14T08:35:45;102763.63;;;6.03;69.40
29371;BME280;16357;52.188;7.838;2023-02-14T08:38:12;102748.09;;;6.11;69.45
29371;BME280;16357;52.188;7.838;2023-02-14T08:40:38;102760.78;;;6.24;69.12
29371;BME280;16357;52.188;7.838;2023-02-14T08:43:05;102756.72;;;6.34;69.33
29371;BME280;16357;52.188;7.838;2023-02-14T08:45:32;102754.44;;;6.44;69.02
29371;BME280;16357;52.188;7.838;2023-02-14T08:48:06;102758.25;;;6.55;68.62
29371;BME280;16357;52.188;7.838;2023-02-14T08:50:34;102756.81;;;6.66;68.79
29371;BME280;16357;52.188;7.838;2023-02-14T08:53:03;102756.34;;;6.75;68.73
29371;BME280;16357;52.188;7.838;2023-02-14T08:55:30;102749.59;;;6.85;68.26
29371;BME280;16357;52.188;7.838;2023-02-14T08:57:58;102750.72;;;6.97;68.22
29371;BME280;16357;52.188;7.838;2023-02-14T09:00:25;102750.22;;;7.06;67.96
29371;BME280;16357;52.188;7.838;2023-02-14T09:02:52;102751.44;;;7.16;68.20
29371;BME280;16357;52.188;7.838;2023-02-14T09:05:19;102753.59;;;7.25;67.76
29371;BME280;16357;52.188;7.838;2023-02-14T09:07:49;102741.53;;;7.34;67.72
29371;BME280;16357;52.188;7.838;2023-02-14T09:10:15;102745.41;;;7.44;67.59
29371;BME280;16357;52.188;7.838;2023-02-14T09:12:44;102742.22;;;7.54;67.57
29371;BME280;16357;52.188;7.838;2023-02-14T09:15:10;102742.66;;;7.62;67.05
29371;BME280;16357;52.188;7.838;2023-02-14T09:17:38;102746.59;;;7.70;67.31
29371;BME280;16357;52.188;7.838;2023-02-14T09:20:06;102743.41;;;7.80;66.71
29371;BME280;16357;52.188;7.838;2023-02-14T09:22:33;102739.34;;;7.88;66.90
29371;BME280;16357;52.188;7.838;2023-02-14T09:25:00;102734.41;;;7.97;66.64
29371;BME280;16357;52.188;7.838;2023-02-14T09:27:27;102732.13;;;8.05;66.60
29371;BME280;16357;52.188;7.838;2023-02-14T09:29:53;102728.94;;;8.14;66.24
29371;BME280;16357;52.188;7.838;2023-02-14T09:32:20;102735.53;;;8.23;66.42
29371;BME280;16357;52.188;7.838;2023-02-14T09:34:46;102733.16;;;8.32;66.02
29371;BME280;16357;52.188;7.838;2023-02-14T09:37:31;102735.31;;;8.42;66.30
29371;BME280;16357;52.188;7.838;2023-02-14T09:39:58;102733.78;;;8.52;65.64
29371;BME280;16357;52.188;7.838;2023-02-14T09:45:20;102727.09;;;8.73;65.69
29371;BME280;16357;52.188;7.838;2023-02-14T09:50:52;102723.97;;;8.95;65.49
29371;BME280;16357;52.188;7.838;2023-02-14T09:53:29;102724.22;;;9.05;65.23
29371;BME280;16357;52.188;7.838;2023-02-14T09:56:18;102719.16;;;9.15;64.56
29371;BME280;16357;52.188;7.838;2023-02-14T09:59:14;102715.78;;;9.26;64.22
29371;BME280;16357;52.188;7.838;2023-02-14T10:01:50;102716.91;;;9.36;64.06
29371;BME280;16357;52.188;7.838;2023-02-14T10:07:04;102712.03;;;9.55;63.44
29371;BME280;16357;52.188;7.838;2023-02-14T10:12:02;102710.81;;;9.74;62.97
29371;BME280;16357;52.188;7.838;2023-02-14T10:14:33;102722.78;;;9.82;63.02
29371;BME280;16357;52.188;7.838;2023-02-14T10:17:08;102708.75;;;9.92;62.67
29371;BME280;16357;52.188;7.838;2023-02-14T10:19:54;102711.53;;;10.03;62.53
29371;BME280;16357;52.188;7.838;2023-02-14T10:22:27;102706.41;;;10.13;62.06
29371;BME280;16357;52.188;7.838;2023-02-14T10:25:03;102706.53;;;10.24;62.06
29371;BME280;16357;52.188;7.838;2023-02-14T10:27:35;102697.03;;;10.32;61.73
29371;BME280;16357;52.188;7.838;2023-02-14T10:30:12;102700.81;;;10.43;61.50
29371;BME280;16357;52.188;7.838;2023-02-14T10:37:56;102695.31;;;10.70;60.85
29371;BME280;16357;52.188;7.838;2023-02-14T10:40:45;102692.72;;;10.81;60.48
29371;BME280;16357;52.188;7.838;2023-02-14T10:43:26;102687.53;;;10.91;60.39
29371;BME280;16357;52.188;7.838;2023-02-14T10:46:35;102686.75;;;11.02;59.81
29371;BME280;16357;52.188;7.838;2023-02-14T10:49:26;102686.84;;;11.13;60.02
29371;BME280;16357;52.188;7.838;2023-02-14T10:52:23;102686.19;;;11.22;59.70
29371;BME280;16357;52.188;7.838;2023-02-14T10:54:57;102681.84;;;11.32;59.54
29371;BME280;16357;52.188;7.838;2023-02-14T11:02:33;102669.25;;;11.57;58.99
29371;BME280;16357;52.188;7.838;2023-02-14T11:05:02;102665.00;;;11.65;58.60
29371;BME280;16357;52.188;7.838;2023-02-14T11:07:29;102660.03;;;11.72;57.75
29371;BME280;16357;52.188;7.838;2023-02-14T11:09:56;102656.75;;;11.80;57.26
29371;BME280;16357;52.188;7.838;2023-02-14T11:12:36;102663.28;;;11.89;57.44
29371;BME280;16357;52.188;7.838;2023-02-14T11:15:30;102655.47;;;11.97;57.32
29371;BME280;16357;52.188;7.838;2023-02-14T11:18:27;102655.63;;;12.06;57.64
29371;BME280;16357;52.188;7.838;2023-02-14T11:21:13;102639.84;;;12.13;57.39
29371;BME280;16357;52.188;7.838;2023-02-14T11:23:42;102642.81;;;12.21;56.84
29371;BME280;16357;52.188;7.838;2023-02-14T11:26:16;102639.66;;;12.27;56.92
29371;BME280;16357;52.188;7.838;2023-02-14T11:28:50;102635.47;;;12.35;56.78
29371;BME280;16357;52.188;7.838;2023-02-14T11:31:28;102631.31;;;12.42;56.62
29371;BME280;16357;52.188;7.838;2023-02-14T11:33:56;102628.13;;;12.48;56.23
29371;BME280;16357;52.188;7.838;2023-02-14T11:36:24;102623.13;;;12.55;56.25
29371;BME280;16357;52.188;7.838;2023-02-14T11:38:57;102614.44;;;12.62;56.11
29371;BME280;16357;52.188;7.838;2023-02-14T11:41:25;102618.34;;;12.69;55.34
29371;BME280;16357;52.188;7.838;2023-02-14T11:44:10;102616.63;;;12.80;55.78
29371;BME280;16357;52.188;7.838;2023-02-14T11:46:37;102616.13;;;12.86;54.93
29371;BME280;16357;52.188;7.838;2023-02-14T11:52:06;102603.94;;;13.03;55.03
29371;BME280;16357;52.188;7.838;2023-02-14T11:54:37;102598.06;;;13.09;54.53
29371;BME280;16357;52.188;7.838;2023-02-14T11:57:07;102598.28;;;13.17;54.56
29371;BME280;16357;52.188;7.838;2023-02-14T11:59:41;102593.22;;;13.24;54.57
29371;BME280;16357;52.188;7.838;2023-02-14T12:02:37;102584.69;;;13.30;54.08
29371;BME280;16357;52.188;7.838;2023-02-14T12:05:25;102574.94;;;13.38;53.95
29371;BME280;16357;52.188;7.838;2023-02-14T12:07:54;102573.47;;;13.46;53.89
29371;BME280;16357;52.188;7.838;2023-02-14T12:10:27;102570.34;;;13.50;53.44
29371;BME280;16357;52.188;7.838;2023-02-14T12:17:59;102564.38;;;13.68;52.89
29371;BME280;16357;52.188;7.838;2023-02-14T12:20:50;102555.75;;;13.74;52.81
29371;BME280;16357;52.188;7.838;2023-02-14T12:23:39;102557.06;;;13.79;52.41
29371;BME280;16357;52.188;7.838;2023-02-14T12:29:36;102554.03;;;13.94;52.47
29371;BME280;16357;52.188;7.838;2023-02-14T12:32:25;102546.22;;;14.00;52.31
29371;BME280;16357;52.188;7.838;2023-02-14T12:35:00;102546.69;;;14.05;52.20
29371;BME280;16357;52.188;7.838;2023-02-14T12:37:36;102540.88;;;14.10;51.66
29371;BME280;16357;52.188;7.838;2023-02-14T12:40:25;102543.03;;;14.16;51.54
29371;BME280;16357;52.188;7.838;2023-02-14T12:42:59;102539.81;;;14.22;52.78
29371;BME280;16357;52.188;7.838;2023-02-14T12:45:55;102540.25;;;14.27;51.57
29371;BME280;16357;52.188;7.838;2023-02-14T12:53:53;102521.25;;;14.39;51.31
29371;BME280;16357;52.188;7.838;2023-02-14T12:56:47;102518.16;;;14.43;50.84
29371;BME280;16357;52.188;7.838;2023-02-14T13:09:56;102511.97;;;14.62;49.88
29371;BME280;16357;52.188;7.838;2023-02-14T13:12:38;102507.13;;;14.66;50.06
29371;BME280;16357;52.188;7.838;2023-02-14T13:20:51;102493.75;;;14.74;49.63
29371;BME280;16357;52.188;7.838;2023-02-14T13:23:50;102488.09;;;14.77;49.66
29371;BME280;16357;52.188;7.838;2023-02-14T13:26:29;102485.25;;;14.79;49.55
29371;BME280;16357;52.188;7.838;2023-02-14T13:29:02;102484.94;;;14.82;49.30
29371;BME280;16357;52.188;7.838;2023-02-14T13:31:30;102477.84;;;14.81;48.57
29371;BME280;16357;52.188;7.838;2023-02-14T13:34:06;102471.31;;;14.83;49.18
29371;BME280;16357;52.188;7.838;2023-02-14T13:36:34;102471.31;;;14.83;48.96
29371;BME280;16357;52.188;7.838;2023-02-14T13:39:03;102464.06;;;14.84;48.63
29371;BME280;16357;52.188;7.838;2023-02-14T13:41:30;102462.19;;;14.84;49.02
29371;BME280;16357;52.188;7.838;2023-02-14T13:43:57;102462.91;;;14.86;49.00
29371;BME280;16357;52.188;7.838;2023-02-14T13:52:04;102463.06;;;14.95;48.51
29371;BME280;16357;52.188;7.838;2023-02-14T13:57:25;102458.06;;;15.00;48.56
29371;BME280;16357;52.188;7.838;2023-02-14T14:02:55;102444.28;;;15.03;48.72
29371;BME280;16357;52.188;7.838;2023-02-14T14:10:55;102444.84;;;15.06;48.08
29371;BME280;16357;52.188;7.838;2023-02-14T14:18:50;102436.03;;;15.04;48.42
29371;BME280;16357;52.188;7.838;2023-02-14T14:21:33;102434.03;;;15.06;48.29
29371;BME280;16357;52.188;7.838;2023-02-14T14:24:10;102435.88;;;15.06;48.14
29371;BME280;16357;52.188;7.838;2023-02-14T14:27:00;102437.44;;;15.08;48.33
29371;BME280;16357;52.188;7.838;2023-02-14T14:30:34;102433.03;;;15.07;48.24
29371;BME280;16357;52.188;7.838;2023-02-14T14:32:37;102433.88;;;15.08;48.08
29371;BME280;16357;52.188;7.838;2023-02-14T14:37:35;102429.47;;;15.07;47.75
29371;BME280;16357;52.188;7.838;2023-02-14T14:40:31;102427.50;;;15.09;47.83
29371;BME280;16357;52.188;7.838;2023-02-14T14:43:18;102422.22;;;15.07;47.86
29371;BME280;16357;52.188;7.838;2023-02-14T14:45:47;102422.34;;;15.06;47.18
29371;BME280;16357;52.188;7.838;2023-02-14T14:48:21;102417.09;;;15.04;47.35
29371;BME280;16357;52.188;7.838;2023-02-14T14:50:50;102411.13;;;15.01;47.06
29371;BME280;16357;52.188;7.838;2023-02-14T14:53:21;102409.44;;;15.00;47.29
29371;BME280;16357;52.188;7.838;2023-02-14T14:55:50;102407.03;;;14.97;47.43
29371;BME280;16357;52.188;7.838;2023-02-14T14:58:38;102408.88;;;14.96;47.35
29371;BME280;16357;52.188;7.838;2023-02-14T15:01:06;102410.88;;;14.94;47.19
29371;BME280;16357;52.188;7.838;2023-02-14T15:03:36;102408.44;;;14.91;46.84
29371;BME280;16357;52.188;7.838;2023-02-14T15:06:26;102409.28;;;14.91;47.23
29371;BME280;16357;52.188;7.838;2023-02-14T15:08:51;102405.03;;;14.89;46.98
29371;BME280;16357;52.188;7.838;2023-02-14T15:11:23;102397.94;;;14.88;47.44
29371;BME280;16357;52.188;7.838;2023-02-14T15:14:16;102398.06;;;14.86;47.16
29371;BME280;16357;52.188;7.838;2023-02-14T15:16:53;102397.34;;;14.84;47.19
29371;BME280;16357;52.188;7.838;2023-02-14T15:22:00;102405.91;;;14.80;46.91
29371;BME280;16357;52.188;7.838;2023-02-14T15:24:27;102393.53;;;14.77;46.85